Time;durP1;ratioP1;P1;durP2;ratioP2;P2;SDS_P1;SDS_P2;PMS_P1;PMS_P2;Temp;Humidity;BMP_temperature;BMP_pressure;BME280_temperature;BME280_humidity;BME280_pressure;Samples;Min_cycle;Max_cycle;Signal;HPM_P1;HPM_P2
2022/08/11 00:00:50;;;;;;;;;;;18.60;99.90;;;;;;4131237;28;19921;-55
2022/08/11 00:02:53;;;;;;;;;;;18.60;99.90;;;;;;4129042;28;20008;-57
2022/08/11 00:04:56;;;;;;;;;;;18.60;99.90;;;;;;4133358;28;19922;-56
2022/08/11 00:07:01;;;;;;;;;;;18.60;99.90;;;;;;4133141;28;19968;-57
2022/08/11 00:09:04;;;;;;;;;;;18.70;99.90;;;;;;4141614;28;19921;-56
2022/08/11 00:11:07;;;;;;;;;;;18.70;99.90;;;;;;4149052;28;19925;-55
2022/08/11 00:13:09;;;;;;;;;;;18.70;99.90;;;;;;4133088;28;19926;-56
2022/08/11 00:15:11;;;;;;;;;;;18.70;99.90;;;;;;4139594;28;19960;-55
2022/08/11 00:17:14;;;;;;;;;;;18.60;99.90;;;;;;4149356;28;20011;-56
2022/08/11 00:19:20;;;;;;;;;;;18.50;99.90;;;;;;4134988;28;20020;-55
2022/08/11 00:21:42;;;;;;;;;;;18.50;99.90;;;;;;4140742;28;19925;-56
2022/08/11 00:24:04;;;;;;;;;;;18.60;99.90;;;;;;4147708;28;19921;-56
2022/08/11 00:26:06;;;;;;;;;;;18.60;99.90;;;;;;4132980;28;19932;-57
2022/08/11 00:28:28;;;;;;;;;;;18.40;99.90;;;;;;4141071;28;20393;-56
2022/08/11 00:30:37;;;;;;;;;;;18.30;99.90;;;;;;4147043;28;20020;-56
2022/08/11 00:32:43;;;;;;;;;;;18.20;99.90;;;;;;4132923;28;20309;-57
2022/08/11 00:34:46;;;;;;;;;;;18.30;99.90;;;;;;4142922;28;19925;-55
2022/08/11 00:36:58;;;;;;;;;;;18.40;99.90;;;;;;4147612;28;19944;-56
2022/08/11 00:39:05;;;;;;;;;;;18.70;99.90;;;;;;4148758;28;19925;-56
2022/08/11 00:41:15;;;;;;;;;;;18.70;99.90;;;;;;4163522;28;19921;-56
2022/08/11 00:43:23;;;;;;;;;;;18.50;99.90;;;;;;4146867;28;20051;-57
2022/08/11 00:45:25;;;;;;;;;;;18.50;99.90;;;;;;4132623;28;19925;-56
2022/08/11 00:47:30;;;;;;;;;;;18.40;99.90;;;;;;4142209;28;19931;-56
2022/08/11 00:49:48;;;;;;;;;;;18.30;99.90;;;;;;4147835;28;19928;-56
2022/08/11 00:52:08;;;;;;;;;;;18.30;99.90;;;;;;4132414;28;20302;-55
2022/08/11 00:54:45;;;;;;;;;;;18.20;99.90;;;;;;4144868;28;19956;-56
2022/08/11 00:57:06;;;;;;;;;;;18.10;99.90;;;;;;4130336;28;19926;-57
2022/08/11 00:59:31;;;;;;;;;;;18.20;99.90;;;;;;4135994;28;20365;-56
2022/08/11 01:01:36;;;;;;;;;;;18.20;99.90;;;;;;4148496;28;19921;-56
2022/08/11 01:03:38;;;;;;;;;;;18.40;99.90;;;;;;4136660;28;20298;-57
2022/08/11 01:05:50;;;;;;;;;;;18.40;99.90;;;;;;4134387;28;20393;-56
2022/08/11 01:07:55;;;;;;;;;;;18.40;99.90;;;;;;4148757;28;19929;-56
2022/08/11 01:10:02;;;;;;;;;;;18.50;99.90;;;;;;4148153;28;20392;-57
2022/08/11 01:12:14;;;;;;;;;;;18.30;99.90;;;;;;4145166;28;19922;-57
2022/08/11 01:14:35;;;;;;;;;;;18.30;99.90;;;;;;4132052;28;19953;-55
2022/08/11 01:16:52;;;;;;;;;;;18.20;99.90;;;;;;4145825;28;19921;-56
2022/08/11 01:18:54;;;;;;;;;;;17.90;99.90;;;;;;4141940;28;19925;-55
2022/08/11 01:21:22;;;;;;;;;;;17.90;99.90;;;;;;4131978;28;19933;-57
2022/08/11 01:23:24;;;;;;;;;;;17.80;99.90;;;;;;4138018;28;19921;-55
2022/08/11 01:25:51;;;;;;;;;;;17.70;99.90;;;;;;4131734;28;19922;-58
2022/08/11 01:28:16;;;;;;;;;;;17.70;99.90;;;;;;4133944;28;19929;-57
2022/08/11 01:30:38;;;;;;;;;;;17.70;99.90;;;;;;4148037;28;19922;-56
2022/08/11 01:32:58;;;;;;;;;;;17.70;99.90;;;;;;4133710;28;19929;-57
2022/08/11 01:35:06;;;;;;;;;;;17.70;99.90;;;;;;4138887;28;20072;-56
2022/08/11 01:37:11;;;;;;;;;;;17.70;99.90;;;;;;4147529;28;20012;-56
2022/08/11 01:39:29;;;;;;;;;;;17.60;99.90;;;;;;4146537;28;19925;-57
2022/08/11 01:46:55;;;;;;;;;;;17.70;99.90;;;;;;4147916;28;19932;-56
2022/08/11 01:49:16;;;;;;;;;;;17.60;99.90;;;;;;4131831;28;20041;-55
2022/08/11 01:51:53;;;;;;;;;;;17.50;99.90;;;;;;4144249;28;19972;-56
2022/08/11 01:54:14;;;;;;;;;;;17.60;99.90;;;;;;4142098;28;19992;-56
2022/08/11 01:56:25;;;;;;;;;;;17.70;99.90;;;;;;4131725;28;19960;-57
2022/08/11 01:58:46;;;;;;;;;;;17.60;99.90;;;;;;4131574;28;19980;-56
2022/08/11 02:01:01;;;;;;;;;;;17.60;99.90;;;;;;4131467;28;19922;-56
2022/08/11 02:03:19;;;;;;;;;;;17.60;99.90;;;;;;4133294;28;20267;-56
2022/08/11 02:05:33;;;;;;;;;;;17.60;99.90;;;;;;4147829;28;19925;-57
2022/08/11 02:07:48;;;;;;;;;;;17.50;99.90;;;;;;4134546;28;19928;-56
2022/08/11 02:09:50;;;;;;;;;;;17.50;99.90;;;;;;4136464;28;19921;-57
2022/08/11 02:11:57;;;;;;;;;;;17.40;99.90;;;;;;4147595;28;20435;-58
2022/08/11 02:14:04;;;;;;;;;;;17.40;99.90;;;;;;4134484;28;19957;-56
2022/08/11 02:16:10;;;;;;;;;;;17.30;99.90;;;;;;4135335;28;20003;-56
2022/08/11 02:18:14;;;;;;;;;;;17.30;99.90;;;;;;4147879;28;19972;-56
2022/08/11 02:26:01;;;;;;;;;;;17.00;99.90;;;;;;4143026;28;19925;-57
2022/08/11 02:28:07;;;;;;;;;;;17.00;99.90;;;;;;4130984;28;20378;-56
2022/08/11 02:30:11;;;;;;;;;;;17.00;99.90;;;;;;4146197;28;19921;-56
2022/08/11 02:35:03;;;;;;;;;;;16.90;99.90;;;;;;4147217;28;19921;-57
2022/08/11 02:37:04;;;;;;;;;;;16.90;99.90;;;;;;4146831;28;19997;-56
2022/08/11 02:39:11;;;;;;;;;;;17.00;99.90;;;;;;4147307;28;19922;-56
2022/08/11 02:44:12;;;;;;;;;;;16.90;99.90;;;;;;4131139;28;19972;-56
2022/08/11 02:46:14;;;;;;;;;;;17.10;99.90;;;;;;4147014;28;19928;-55
2022/08/11 02:51:10;;;;;;;;;;;17.20;99.90;;;;;;4133718;28;19952;-56
2022/08/11 02:53:16;;;;;;;;;;;17.20;99.90;;;;;;4147090;28;19925;-58
2022/08/11 02:55:19;;;;;;;;;;;17.10;99.90;;;;;;4134282;28;19925;-56
2022/08/11 02:57:46;;;;;;;;;;;17.10;99.90;;;;;;4136460;28;19931;-57
2022/08/11 02:59:54;;;;;;;;;;;17.00;99.90;;;;;;4149600;28;20634;-56
2022/08/11 03:01:56;;;;;;;;;;;17.00;99.90;;;;;;4136535;28;20312;-56
2022/08/11 03:04:17;;;;;;;;;;;17.20;99.90;;;;;;4139482;28;19971;-56
2022/08/11 03:06:22;;;;;;;;;;;17.30;99.90;;;;;;4150541;28;19956;-57
2022/08/11 03:08:47;;;;;;;;;;;17.80;99.90;;;;;;4135451;28;19925;-56
2022/08/11 03:18:11;;;;;;;;;;;19.30;99.90;;;;;;4150154;28;19929;-57
2022/08/11 03:20:21;;;;;;;;;;;19.60;99.90;;;;;;4142796;28;19928;-57
2022/08/11 03:22:22;;;;;;;;;;;19.60;99.90;;;;;;4133863;28;20412;-57
2022/08/11 03:24:40;;;;;;;;;;;19.40;99.90;;;;;;4148529;28;19921;-56
2022/08/11 03:26:53;;;;;;;;;;;19.10;99.90;;;;;;4148825;28;19972;-57
2022/08/11 03:29:14;;;;;;;;;;;18.80;99.90;;;;;;4149851;28;19960;-56
2022/08/11 03:31:24;;;;;;;;;;;18.60;99.90;;;;;;4149914;28;19968;-57
2022/08/11 03:36:04;;;;;;;;;;;18.70;99.90;;;;;;4148266;28;20025;-55
2022/08/11 03:38:09;;;;;;;;;;;18.60;99.90;;;;;;4150101;28;19965;-55
2022/08/11 03:40:11;;;;;;;;;;;18.70;99.90;;;;;;4149544;28;20381;-57
2022/08/11 03:42:25;;;;;;;;;;;18.60;99.90;;;;;;4145184;28;20185;-56
2022/08/11 03:44:45;;;;;;;;;;;18.60;99.90;;;;;;4133698;28;19952;-57
2022/08/11 03:46:50;;;;;;;;;;;18.60;99.90;;;;;;4149116;28;19921;-56
2022/08/11 03:49:15;;;;;;;;;;;18.50;99.90;;;;;;4143061;28;19969;-57
2022/08/11 03:51:21;;;;;;;;;;;18.80;99.90;;;;;;4114331;28;20434;-57
2022/08/11 03:53:41;;;;;;;;;;;18.80;99.90;;;;;;4149640;28;19932;-56
2022/08/11 03:55:43;;;;;;;;;;;18.70;99.90;;;;;;4139353;28;19930;-56
2022/08/11 03:57:51;;;;;;;;;;;18.60;99.90;;;;;;4134454;28;19925;-57
2022/08/11 04:00:09;;;;;;;;;;;18.50;99.90;;;;;;4148392;28;19925;-56
2022/08/11 04:02:12;;;;;;;;;;;18.40;99.90;;;;;;4138158;28;20016;-56
2022/08/11 04:04:28;;;;;;;;;;;18.20;99.90;;;;;;4134840;28;20407;-56
2022/08/11 04:06:39;;;;;;;;;;;18.10;99.90;;;;;;4148055;28;19922;-55
2022/08/11 04:08:45;;;;;;;;;;;18.20;99.90;;;;;;4136866;28;19934;-56
2022/08/11 04:11:14;;;;;;;;;;;18.20;99.90;;;;;;4134818;28;19943;-56
2022/08/11 04:13:33;;;;;;;;;;;18.30;99.90;;;;;;4148153;28;20456;-56
2022/08/11 04:16:01;;;;;;;;;;;18.30;99.90;;;;;;4139407;28;19954;-56
2022/08/11 04:18:20;;;;;;;;;;;18.20;99.90;;;;;;4132753;28;19928;-57
2022/08/11 04:20:29;;;;;;;;;;;18.10;99.90;;;;;;4136402;28;19925;-57
2022/08/11 04:22:31;;;;;;;;;;;18.30;99.90;;;;;;4149021;28;19925;-56
2022/08/11 04:24:40;;;;;;;;;;;18.30;99.90;;;;;;4140590;28;19975;-56
2022/08/11 04:26:54;;;;;;;;;;;18.20;99.90;;;;;;4149117;28;19948;-56
2022/08/11 04:29:14;;;;;;;;;;;18.30;99.90;;;;;;4148607;28;20301;-56
2022/08/11 04:31:20;;;;;;;;;;;18.40;99.90;;;;;;4149047;28;19955;-56
2022/08/11 04:33:53;;;;;;;;;;;18.60;99.90;;;;;;4149131;28;20016;-58
2022/08/11 04:36:08;;;;;;;;;;;18.50;99.90;;;;;;4143189;28;19921;-60
2022/08/11 04:38:29;;;;;;;;;;;18.60;99.90;;;;;;4148934;28;19960;-60
2022/08/11 04:40:34;;;;;;;;;;;18.60;99.90;;;;;;4136092;28;20285;-59
2022/08/11 04:45:53;;;;;;;;;;;18.70;99.90;;;;;;4149275;28;19926;-60
2022/08/11 05:01:42;;;;;;;;;;;18.70;99.90;;;;;;4132647;28;20366;-60
2022/08/11 05:03:50;;;;;;;;;;;18.60;99.90;;;;;;4132323;28;19965;-59
2022/08/11 05:06:14;;;;;;;;;;;18.60;99.90;;;;;;4132212;28;19922;-60
2022/08/11 05:08:24;;;;;;;;;;;18.50;99.90;;;;;;4135755;28;20278;-60
2022/08/11 05:10:35;;;;;;;;;;;18.60;99.90;;;;;;4148231;28;19921;-59
2022/08/11 05:12:50;;;;;;;;;;;18.70;99.90;;;;;;4133899;28;19980;-60
2022/08/11 05:36:52;;;;;;;;;;;19.10;99.90;;;;;;4140062;28;19921;-62
2022/08/11 05:58:12;;;;;;;;;;;20.30;99.90;;;;;;4138626;28;19945;-62
2022/08/11 06:00:15;;;;;;;;;;;20.40;99.90;;;;;;4142862;28;20381;-62
2022/08/11 06:02:17;;;;;;;;;;;20.60;99.90;;;;;;4145504;28;19921;-61
2022/08/11 06:04:23;;;;;;;;;;;20.90;99.90;;;;;;4131337;28;19922;-63
2022/08/11 06:06:25;;;;;;;;;;;20.80;99.90;;;;;;4131293;28;19934;-61
2022/08/11 06:08:34;;;;;;;;;;;21.10;99.90;;;;;;4131729;28;19921;-61
2022/08/11 06:10:38;;;;;;;;;;;21.00;99.90;;;;;;4147317;28;20358;-62
2022/08/11 06:12:41;;;;;;;;;;;21.00;99.90;;;;;;4138492;28;20297;-62
2022/08/11 06:14:43;;;;;;;;;;;21.20;99.90;;;;;;4131333;28;20040;-62
2022/08/11 06:16:47;;;;;;;;;;;21.30;99.90;;;;;;4131798;28;19972;-62
2022/08/11 06:18:49;;;;;;;;;;;21.50;99.90;;;;;;4146572;28;19926;-62
2022/08/11 06:20:56;;;;;;;;;;;21.80;99.90;;;;;;4159425;28;19925;-61
2022/08/11 06:23:02;;;;;;;;;;;21.80;99.90;;;;;;4145365;28;19936;-61
2022/08/11 06:25:05;;;;;;;;;;;21.80;99.90;;;;;;4142805;28;20417;-62
2022/08/11 06:27:07;;;;;;;;;;;21.90;99.90;;;;;;4145623;28;20328;-61
2022/08/11 06:29:17;;;;;;;;;;;22.10;99.90;;;;;;4141940;28;20377;-56
2022/08/11 06:31:22;;;;;;;;;;;22.20;99.90;;;;;;4146543;28;20043;-55
2022/08/11 06:33:38;;;;;;;;;;;22.20;99.90;;;;;;4142397;28;19933;-56
2022/08/11 06:35:49;;;;;;;;;;;22.20;99.90;;;;;;4148972;28;19931;-57
2022/08/11 06:38:03;;;;;;;;;;;22.30;99.90;;;;;;4145760;28;19965;-56
2022/08/11 06:40:10;;;;;;;;;;;22.30;99.90;;;;;;4134447;28;20017;-57
2022/08/11 06:42:22;;;;;;;;;;;22.40;99.90;;;;;;4134078;28;19921;-56
2022/08/11 06:44:31;;;;;;;;;;;22.50;99.90;;;;;;4146233;28;19925;-57
2022/08/11 06:46:37;;;;;;;;;;;22.50;99.90;;;;;;4149182;28;19921;-57
2022/08/11 06:48:40;;;;;;;;;;;22.70;99.90;;;;;;4143305;28;19929;-56
2022/08/11 06:53:11;;;;;;;;;;;22.70;99.90;;;;;;4149426;28;19974;-56
2022/08/11 07:00:26;;;;;;;;;;;22.70;99.90;;;;;;4133725;28;19959;-57
2022/08/11 07:00:27;;;;;;;;;;;23.00;99.90;;;;;;4142662;28;20289;-57
2022/08/11 07:02:32;;;;;;;;;;;23.10;99.90;;;;;;4134047;28;19945;-56
2022/08/11 07:04:34;;;;;;;;;;;23.10;99.90;;;;;;4149772;28;19987;-56
2022/08/11 07:06:45;;;;;;;;;;;23.10;99.90;;;;;;4143697;28;19975;-56
2022/08/11 07:16:39;;;;;;;;;;;23.30;99.90;;;;;;4149847;28;20017;-56
2022/08/11 07:30:57;;;;;;;;;;;23.70;99.90;;;;;;4148590;28;20299;-55
2022/08/11 07:33:00;;;;;;;;;;;23.80;99.90;;;;;;4136204;28;19925;-56
2022/08/11 07:35:07;;;;;;;;;;;23.80;99.90;;;;;;4137737;28;20377;-56
2022/08/11 07:37:12;;;;;;;;;;;23.80;99.90;;;;;;4149274;28;19921;-56
2022/08/11 07:39:16;;;;;;;;;;;23.90;99.90;;;;;;4149756;28;19972;-57
2022/08/11 07:41:20;;;;;;;;;;;23.90;99.90;;;;;;4149285;28;20279;-56
2022/08/11 07:43:22;;;;;;;;;;;24.00;99.90;;;;;;4149588;28;19927;-57
2022/08/11 07:52:31;;;;;;;;;;;24.30;99.90;;;;;;4133130;28;19972;-56
2022/08/11 07:54:34;;;;;;;;;;;24.40;99.90;;;;;;4140561;28;19925;-56
2022/08/11 07:56:36;;;;;;;;;;;24.40;99.90;;;;;;4149518;28;20000;-56
2022/08/11 08:48:55;;;;;;;;;;;26.20;97.80;;;;;;4153073;28;19963;-56
2022/08/11 08:53:27;;;;;;;;;;;26.60;97.70;;;;;;4179047;28;19924;-57
2022/08/11 08:55:30;;;;;;;;;;;26.60;97.30;;;;;;4154948;28;19925;-56
2022/08/11 08:57:33;;;;;;;;;;;26.60;96.60;;;;;;4141320;28;19953;-57
2022/08/11 08:59:40;;;;;;;;;;;27.00;97.60;;;;;;4160790;28;19943;-55
2022/08/11 09:01:52;;;;;;;;;;;27.00;96.30;;;;;;4159664;28;19928;-57
2022/08/11 09:03:54;;;;;;;;;;;26.80;96.70;;;;;;4154980;28;20368;-56
2022/08/11 09:06:08;;;;;;;;;;;26.70;96.90;;;;;;4159308;28;19921;-57
2022/08/11 09:08:10;;;;;;;;;;;26.70;96.80;;;;;;4162503;28;20028;-57
2022/08/11 09:10:12;;;;;;;;;;;26.70;96.30;;;;;;4159532;28;19960;-57
2022/08/11 09:12:15;;;;;;;;;;;26.80;96.60;;;;;;4160385;28;19932;-56
2022/08/11 09:14:22;;;;;;;;;;;26.70;96.20;;;;;;4155964;28;19921;-58
2022/08/11 09:16:24;;;;;;;;;;;26.80;96.00;;;;;;4153127;28;19944;-56
2022/08/11 09:18:27;;;;;;;;;;;27.10;96.80;;;;;;4159657;28;19921;-57
2022/08/11 09:20:35;;;;;;;;;;;27.40;96.80;;;;;;4155912;28;19944;-56
2022/08/11 09:27:41;;;;;;;;;;;27.60;95.50;;;;;;4156101;28;20472;-56
2022/08/11 09:29:51;;;;;;;;;;;27.90;94.60;;;;;;4155311;28;20348;-56
2022/08/11 09:31:54;;;;;;;;;;;27.70;93.80;;;;;;4156416;28;19924;-57
2022/08/11 09:33:57;;;;;;;;;;;27.90;94.30;;;;;;4166985;28;19936;-56
2022/08/11 09:40:27;;;;;;;;;;;27.90;94.50;;;;;;4154974;28;19968;-56
2022/08/11 09:40:48;;;;;;;;;;;28.00;92.90;;;;;;4159542;28;19921;-57
2022/08/11 09:45:15;;;;;;;;;;;28.30;93.00;;;;;;4144837;28;19929;-56
2022/08/11 09:47:19;;;;;;;;;;;28.10;92.40;;;;;;4152078;28;20428;-57
2022/08/11 09:49:21;;;;;;;;;;;28.00;92.20;;;;;;4132132;28;19929;-57
2022/08/11 09:51:23;;;;;;;;;;;28.00;92.10;;;;;;4146210;28;19928;-57
2022/08/11 09:53:26;;;;;;;;;;;27.80;92.90;;;;;;4134857;28;19925;-57
2022/08/11 09:55:38;;;;;;;;;;;27.60;92.70;;;;;;4137503;28;19969;-56
2022/08/11 10:00:08;;;;;;;;;;;27.50;92.10;;;;;;4131638;28;19928;-57
2022/08/11 10:02:14;;;;;;;;;;;27.40;91.80;;;;;;4139860;28;19933;-56
2022/08/11 10:04:17;;;;;;;;;;;27.40;91.40;;;;;;4138249;28;20447;-56
2022/08/11 10:08:41;;;;;;;;;;;27.00;91.90;;;;;;4134794;28;19926;-57
2022/08/11 10:10:44;;;;;;;;;;;27.10;92.00;;;;;;4138105;28;19926;-57
2022/08/11 10:12:48;;;;;;;;;;;27.10;91.70;;;;;;4148786;28;20273;-57
2022/08/11 10:17:17;;;;;;;;;;;27.10;91.90;;;;;;4151440;28;19929;-56
2022/08/11 10:19:20;;;;;;;;;;;27.10;90.80;;;;;;4137533;28;19925;-56
2022/08/11 10:21:35;;;;;;;;;;;27.00;90.30;;;;;;4139085;28;20020;-56
2022/08/11 10:28:23;;;;;;;;;;;27.60;90.70;;;;;;4144853;28;19980;-55
2022/08/11 10:35:40;;;;;;;;;;;27.60;90.30;;;;;;4114116;28;19930;-56
2022/08/11 10:37:44;;;;;;;;;;;27.70;90.40;;;;;;4135979;28;20012;-57
2022/08/11 10:40:07;;;;;;;;;;;27.90;90.30;;;;;;4123138;28;20284;-56
2022/08/11 10:44:51;;;;;;;;;;;27.60;89.80;;;;;;4137083;28;19950;-57
2022/08/11 10:49:15;;;;;;;;;;;27.70;89.10;;;;;;4139067;28;19925;-56
2022/08/11 10:51:18;;;;;;;;;;;27.30;89.00;;;;;;4156681;28;19948;-56
2022/08/11 11:00:47;;;;;;;;;;;27.80;88.90;;;;;;4162741;28;20389;-57
2022/08/11 11:02:50;;;;;;;;;;;27.70;85.90;;;;;;4159825;28;20028;-56
2022/08/11 11:05:23;;;;;;;;;;;27.60;86.20;;;;;;4166855;28;19925;-57
2022/08/11 11:07:34;;;;;;;;;;;27.60;86.50;;;;;;4147230;28;19963;-57
2022/08/11 11:09:42;;;;;;;;;;;27.70;86.80;;;;;;4161269;28;20002;-56
2022/08/11 11:18:51;;;;;;;;;;;27.80;84.10;;;;;;4150476;28;19971;-57
2022/08/11 11:21:05;;;;;;;;;;;27.80;83.80;;;;;;4165394;28;19926;-56
2022/08/11 11:23:15;;;;;;;;;;;27.70;85.30;;;;;;4150151;28;20035;-57
2022/08/11 11:25:20;;;;;;;;;;;27.70;84.80;;;;;;4149607;28;19961;-57
2022/08/11 11:27:29;;;;;;;;;;;27.80;84.70;;;;;;4149714;28;19925;-56
2022/08/11 11:29:31;;;;;;;;;;;27.90;85.70;;;;;;4149898;28;19967;-56
2022/08/11 11:31:42;;;;;;;;;;;27.90;87.20;;;;;;4149547;28;20369;-56
2022/08/11 11:33:59;;;;;;;;;;;27.90;84.90;;;;;;4148862;28;19930;-56
2022/08/11 11:36:35;;;;;;;;;;;28.10;84.40;;;;;;4155803;28;19925;-57
2022/08/11 11:38:37;;;;;;;;;;;28.20;84.70;;;;;;4165572;28;20416;-56
2022/08/11 11:40:39;;;;;;;;;;;28.40;83.50;;;;;;4161274;28;19925;-56
2022/08/11 11:42:43;;;;;;;;;;;28.50;85.30;;;;;;4149445;28;20286;-56
2022/08/11 11:44:45;;;;;;;;;;;28.70;84.30;;;;;;4149328;28;19925;-56
2022/08/11 11:46:48;;;;;;;;;;;28.60;83.50;;;;;;4149368;28;19964;-56
2022/08/11 11:48:50;;;;;;;;;;;28.60;83.80;;;;;;4161380;28;20566;-57
2022/08/11 11:50:53;;;;;;;;;;;28.90;83.90;;;;;;4160915;28;20011;-57
2022/08/11 11:53:00;;;;;;;;;;;29.20;82.70;;;;;;4168150;28;20411;-56
2022/08/11 11:55:03;;;;;;;;;;;29.00;83.00;;;;;;4165796;28;19925;-56
2022/08/11 12:01:51;;;;;;;;;;;28.60;85.40;;;;;;4131732;28;20519;-56
2022/08/11 12:03:54;;;;;;;;;;;29.00;83.10;;;;;;4149152;28;19921;-56
2022/08/11 12:05:57;;;;;;;;;;;29.00;82.10;;;;;;4149431;28;19929;-57
2022/08/11 12:08:10;;;;;;;;;;;29.00;84.20;;;;;;4149265;28;20360;-56
2022/08/11 12:10:14;;;;;;;;;;;29.30;83.90;;;;;;4149001;28;20285;-56
2022/08/11 12:14:38;;;;;;;;;;;29.10;84.70;;;;;;4149055;28;20309;-56
2022/08/11 12:16:42;;;;;;;;;;;29.50;83.20;;;;;;4155429;28;19925;-57
2022/08/11 12:18:45;;;;;;;;;;;29.50;81.80;;;;;;4167982;28;19929;-55
2022/08/11 12:20:47;;;;;;;;;;;29.20;80.90;;;;;;4150572;28;20370;-57
2022/08/11 12:27:31;;;;;;;;;;;29.20;81.10;;;;;;4148883;28;20333;-56
2022/08/11 12:29:33;;;;;;;;;;;29.00;80.60;;;;;;4148887;28;19925;-56
2022/08/11 12:31:36;;;;;;;;;;;29.40;80.90;;;;;;4147374;28;19921;-57
2022/08/11 12:33:40;;;;;;;;;;;29.60;80.40;;;;;;4148504;28;19929;-56
2022/08/11 12:35:42;;;;;;;;;;;29.50;81.30;;;;;;4150374;28;19922;-56
2022/08/11 12:38:02;;;;;;;;;;;29.60;81.80;;;;;;4160399;28;19925;-56
2022/08/11 12:45:27;;;;;;;;;;;30.30;78.60;;;;;;4151932;28;19996;-59
2022/08/11 12:51:55;;;;;;;;;;;30.70;78.80;;;;;;4148569;28;19929;-59
2022/08/11 12:52:32;;;;;;;;;;;30.40;81.00;;;;;;4148371;28;19922;-58
2022/08/11 12:54:46;;;;;;;;;;;30.00;78.90;;;;;;4148068;28;20008;-58
2022/08/11 13:06:15;;;;;;;;;;;29.80;78.80;;;;;;4149264;28;20486;-59
2022/08/11 13:08:18;;;;;;;;;;;29.60;78.30;;;;;;4169785;28;20011;-59
2022/08/11 13:12:47;;;;;;;;;;;30.00;76.30;;;;;;4163575;28;19925;-58
2022/08/11 13:14:50;;;;;;;;;;;29.90;74.40;;;;;;4160582;28;19921;-58
2022/08/11 13:19:13;;;;;;;;;;;29.90;75.00;;;;;;4178799;28;19921;-59
2022/08/11 13:21:15;;;;;;;;;;;30.00;73.80;;;;;;4164105;28;20377;-59
2022/08/11 13:23:22;;;;;;;;;;;29.70;73.30;;;;;;4163570;28;20024;-60
2022/08/11 13:25:26;;;;;;;;;;;29.90;73.70;;;;;;4168725;28;19975;-59
2022/08/11 13:27:28;;;;;;;;;;;30.10;74.70;;;;;;4156539;28;19927;-59
2022/08/11 13:29:31;;;;;;;;;;;30.10;73.20;;;;;;4162248;28;20340;-59
2022/08/11 13:31:33;;;;;;;;;;;30.50;74.10;;;;;;4180648;28;20486;-58
2022/08/11 13:33:40;;;;;;;;;;;30.40;74.10;;;;;;4164639;28;19928;-59
2022/08/11 13:35:44;;;;;;;;;;;30.10;74.30;;;;;;4166512;28;20362;-58
2022/08/11 13:37:46;;;;;;;;;;;30.00;73.40;;;;;;4164099;28;19971;-59
2022/08/11 13:40:09;;;;;;;;;;;30.10;75.60;;;;;;4170382;28;20373;-59
2022/08/11 13:42:12;;;;;;;;;;;29.80;74.70;;;;;;4172856;28;19924;-58
2022/08/11 13:44:15;;;;;;;;;;;29.70;75.50;;;;;;4163725;28;19925;-58
2022/08/11 13:46:23;;;;;;;;;;;29.90;75.30;;;;;;4148735;28;19929;-59
2022/08/11 13:48:25;;;;;;;;;;;30.20;75.90;;;;;;4158061;28;19921;-59
2022/08/11 13:51:29;;;;;;;;;;;30.20;75.50;;;;;;4163377;28;20373;-59
2022/08/11 13:52:48;;;;;;;;;;;30.10;74.40;;;;;;4162650;28;19921;-59
2022/08/11 13:54:54;;;;;;;;;;;30.10;76.80;;;;;;4157013;28;20316;-59
2022/08/11 13:56:59;;;;;;;;;;;30.30;75.60;;;;;;4150207;28;19965;-59
2022/08/11 13:59:02;;;;;;;;;;;30.50;76.20;;;;;;4155600;28;20015;-58
2022/08/11 14:01:05;;;;;;;;;;;29.90;74.40;;;;;;4158636;28;19925;-58
2022/08/11 14:03:28;;;;;;;;;;;29.40;76.40;;;;;;4161653;28;19929;-58
2022/08/11 14:05:55;;;;;;;;;;;29.10;74.90;;;;;;4150925;28;19932;-58
2022/08/11 14:07:59;;;;;;;;;;;29.40;76.70;;;;;;4158546;28;19931;-58
2022/08/11 14:10:02;;;;;;;;;;;29.90;76.00;;;;;;4146172;28;19928;-59
2022/08/11 14:14:32;;;;;;;;;;;30.50;73.60;;;;;;4152704;28;19964;-59
2022/08/11 14:16:38;;;;;;;;;;;30.00;71.00;;;;;;4149350;28;19926;-58
2022/08/11 14:18:43;;;;;;;;;;;29.40;70.30;;;;;;4156693;28;20015;-58
2022/08/11 14:23:12;;;;;;;;;;;28.80;72.60;;;;;;4160528;28;19984;-58
2022/08/11 14:25:15;;;;;;;;;;;29.00;71.80;;;;;;4149220;28;20289;-58
2022/08/11 14:27:17;;;;;;;;;;;29.40;71.50;;;;;;4161358;28;20397;-58
2022/08/11 14:29:40;;;;;;;;;;;29.60;72.00;;;;;;4156927;28;19925;-58
2022/08/11 14:31:45;;;;;;;;;;;29.70;70.90;;;;;;4154972;28;20283;-59
2022/08/11 14:33:47;;;;;;;;;;;29.80;70.90;;;;;;4163244;28;20296;-58
2022/08/11 14:36:04;;;;;;;;;;;29.80;69.80;;;;;;4162034;28;20027;-59
2022/08/11 14:38:06;;;;;;;;;;;29.60;70.50;;;;;;4161295;28;19960;-58
2022/08/11 14:47:03;;;;;;;;;;;29.00;70.00;;;;;;4156838;28;20582;-58
2022/08/11 14:47:19;;;;;;;;;;;28.80;71.00;;;;;;4156595;28;20031;-59
2022/08/11 14:49:26;;;;;;;;;;;29.20;71.30;;;;;;4160650;28;20320;-59
2022/08/11 14:51:28;;;;;;;;;;;29.30;69.70;;;;;;4162476;28;19928;-58
2022/08/11 14:53:31;;;;;;;;;;;29.60;69.90;;;;;;4152896;28;20423;-59
2022/08/11 14:57:57;;;;;;;;;;;29.80;70.80;;;;;;4150496;28;20397;-59
2022/08/11 15:00:00;;;;;;;;;;;29.60;68.60;;;;;;4151874;28;19921;-58
2022/08/11 15:04:24;;;;;;;;;;;29.60;68.90;;;;;;4160494;28;20043;-59
2022/08/11 15:06:37;;;;;;;;;;;29.50;68.70;;;;;;4150180;28;19957;-58
2022/08/11 15:08:54;;;;;;;;;;;29.50;68.30;;;;;;4151379;28;20413;-59
2022/08/11 15:10:56;;;;;;;;;;;29.70;68.40;;;;;;4149799;28;20316;-58
2022/08/11 15:12:59;;;;;;;;;;;29.80;67.70;;;;;;4149925;28;19926;-58
2022/08/11 15:17:22;;;;;;;;;;;30.00;68.10;;;;;;4163972;28;19925;-59
2022/08/11 15:19:25;;;;;;;;;;;29.70;67.70;;;;;;4182765;28;19932;-59
2022/08/11 15:26:12;;;;;;;;;;;29.40;68.40;;;;;;4164863;28;19960;-58
2022/08/11 15:37:41;;;;;;;;;;;29.70;66.60;;;;;;4154268;28;20403;-58
2022/08/11 15:47:17;;;;;;;;;;;29.20;66.90;;;;;;4163211;28;20271;-59
2022/08/11 15:49:23;;;;;;;;;;;29.40;67.70;;;;;;4155567;28;19976;-59
2022/08/11 15:51:43;;;;;;;;;;;29.40;66.60;;;;;;4156336;28;19929;-58
2022/08/11 15:53:48;;;;;;;;;;;29.50;66.50;;;;;;4154522;28;19932;-59
2022/08/11 15:55:58;;;;;;;;;;;29.40;67.20;;;;;;4159182;28;19921;-58
2022/08/11 16:04:58;;;;;;;;;;;29.10;68.30;;;;;;4158028;28;19932;-58
2022/08/11 16:07:00;;;;;;;;;;;28.70;66.00;;;;;;4163695;28;20274;-57
2022/08/11 16:09:04;;;;;;;;;;;28.60;67.60;;;;;;4155051;28;19921;-58
2022/08/11 16:11:09;;;;;;;;;;;28.50;67.30;;;;;;4153956;28;19980;-60
2022/08/11 16:17:39;;;;;;;;;;;28.40;67.20;;;;;;4158056;28;19929;-58
2022/08/11 16:19:41;;;;;;;;;;;28.30;68.20;;;;;;4161477;28;19925;-58
2022/08/11 16:21:44;;;;;;;;;;;28.30;68.30;;;;;;4158808;28;19920;-59
2022/08/11 16:23:47;;;;;;;;;;;28.10;67.80;;;;;;4155388;28;19932;-58
2022/08/11 16:25:50;;;;;;;;;;;27.90;67.60;;;;;;4158679;28;19979;-59
2022/08/11 16:28:12;;;;;;;;;;;27.70;67.50;;;;;;4160579;28;20018;-58
2022/08/11 16:30:15;;;;;;;;;;;27.60;69.50;;;;;;4160220;28;20023;-58
2022/08/11 16:32:22;;;;;;;;;;;27.70;68.40;;;;;;4161255;28;19967;-59
2022/08/11 16:39:06;;;;;;;;;;;27.50;69.40;;;;;;4156927;28;19963;-58
2022/08/11 16:41:12;;;;;;;;;;;27.40;68.50;;;;;;4158482;28;19925;-57
2022/08/11 16:47:56;;;;;;;;;;;27.20;68.90;;;;;;4153537;28;19927;-58
2022/08/11 16:50:05;;;;;;;;;;;27.10;71.00;;;;;;4159142;28;19925;-58
2022/08/11 16:52:10;;;;;;;;;;;27.10;69.00;;;;;;4160377;28;20419;-57
2022/08/11 16:54:13;;;;;;;;;;;27.00;69.40;;;;;;4157218;28;20308;-57
2022/08/11 16:56:18;;;;;;;;;;;27.00;70.10;;;;;;4154043;28;19932;-57
2022/08/11 17:00:43;;;;;;;;;;;26.90;70.10;;;;;;4159895;28;20035;-57
2022/08/11 17:15:00;;;;;;;;;;;26.30;69.60;;;;;;4154994;28;19925;-58
2022/08/11 17:17:08;;;;;;;;;;;26.30;70.70;;;;;;4149992;28;19932;-57
2022/08/11 17:19:12;;;;;;;;;;;26.20;69.30;;;;;;4155138;28;19961;-57
2022/08/11 17:21:25;;;;;;;;;;;26.10;69.60;;;;;;4156157;28;20451;-57
2022/08/11 17:23:45;;;;;;;;;;;26.10;70.40;;;;;;4161361;28;19929;-57
2022/08/11 17:25:48;;;;;;;;;;;26.00;70.30;;;;;;4154556;28;19925;-58
2022/08/11 17:28:00;;;;;;;;;;;26.00;69.80;;;;;;4161365;28;20659;-57
2022/08/11 17:30:04;;;;;;;;;;;25.90;70.90;;;;;;4133339;28;19933;-58
2022/08/11 17:36:50;;;;;;;;;;;25.80;69.80;;;;;;4154242;28;19921;-57
2022/08/11 17:38:52;;;;;;;;;;;25.60;70.00;;;;;;4154108;28;20181;-57
2022/08/11 17:48:35;;;;;;;;;;;25.50;70.60;;;;;;4153246;28;20424;-57
2022/08/11 17:50:29;;;;;;;;;;;25.40;70.80;;;;;;4147862;28;20389;-58
2022/08/11 17:59:51;;;;;;;;;;;25.20;71.30;;;;;;4146955;28;19971;-57
2022/08/11 18:03:27;;;;;;;;;;;25.10;70.90;;;;;;4145732;28;20369;-57
2022/08/11 18:04:21;;;;;;;;;;;25.00;70.90;;;;;;4146818;28;20060;-57
2022/08/11 18:06:24;;;;;;;;;;;25.00;71.70;;;;;;4139640;28;19925;-58
